Time;durP1;ratioP1;P1;durP2;ratioP2;P2;SDS_P1;SDS_P2;PMS_P1;PMS_P2;Temp;Humidity;BMP_temperature;BMP_pressure;BME280_temperature;BME280_humidity;BME280_pressure;Samples;Min_cycle;Max_cycle;Signal;HPM_P1;HPM_P2
2022/09/01 00:02:07;;;;;;;5.50;1.55;;;;;;;15.78;60.48;99730.91;1728517;82;21048;-70
2022/09/01 00:04:31;;;;;;;3.02;1.92;;;;;;;15.78;60.19;99726.84;1732473;82;20992;-72
2022/09/01 00:07:00;;;;;;;3.20;1.72;;;;;;;15.77;60.17;99741.48;1734610;82;21145;-70
2022/09/01 00:09:27;;;;;;;2.58;1.52;;;;;;;15.75;60.04;99742.30;1734332;82;21083;-71
2022/09/01 00:11:54;;;;;;;4.25;1.70;;;;;;;15.75;59.97;99739.05;1724085;80;21463;-71
2022/09/01 00:14:24;;;;;;;3.50;1.80;;;;;;;15.75;60.05;99737.69;1726472;82;20998;-69
2022/09/01 00:16:52;;;;;;;2.70;2.50;;;;;;;15.75;59.73;99748.53;1736006;82;21016;-69
2022/09/01 00:19:21;;;;;;;2.87;1.85;;;;;;;15.73;60.03;99737.14;1723250;82;21496;-69
2022/09/01 00:21:47;;;;;;;1.80;1.70;;;;;;;15.71;59.91;99736.64;1721195;81;21576;-68
2022/09/01 00:24:15;;;;;;;1.35;1.25;;;;;;;15.71;60.10;99735.28;1760182;80;21088;-69
2022/09/01 00:26:43;;;;;;;3.55;2.00;;;;;;;15.66;60.30;99736.13;1733961;81;20945;-70
2022/09/01 00:29:11;;;;;;;3.37;1.60;;;;;;;15.63;60.40;99739.38;1729530;82;21042;-69
2022/09/01 00:31:39;;;;;;;1.67;1.52;;;;;;;15.62;60.54;99739.14;1718754;82;21158;-69
2022/09/01 00:34:05;;;;;;;1.90;1.35;;;;;;;15.62;60.70;99745.92;1717363;82;20986;-70
2022/09/01 00:36:32;;;;;;;2.10;1.60;;;;;;;15.61;60.66;99751.08;1717326;82;21515;-70
2022/09/01 00:38:59;;;;;;;2.58;1.82;;;;;;;15.57;60.74;99751.38;1716797;83;21049;-71
2022/09/01 00:41:27;;;;;;;3.02;1.52;;;;;;;15.56;60.77;99755.17;1719465;82;21053;-69
2022/09/01 00:44:05;;;;;;;1.92;1.60;;;;;;;15.51;61.04;99752.48;1730505;82;21900;-69
2022/09/01 00:46:35;;;;;;;4.78;1.37;;;;;;;15.46;61.09;99751.13;1735788;82;21017;-71
2022/09/01 00:49:10;;;;;;;1.85;1.67;;;;;;;15.43;61.27;99752.25;1730614;81;21472;-73
2022/09/01 00:51:38;;;;;;;1.82;1.72;;;;;;;15.38;61.42;99745.50;1723636;81;21011;-71
2022/09/01 00:54:06;;;;;;;1.37;1.27;;;;;;;15.35;61.64;99758.27;1727440;83;21004;-73
2022/09/01 00:56:33;;;;;;;2.12;1.95;;;;;;;15.34;61.78;99753.92;1728989;83;21081;-74
2022/09/01 00:59:00;;;;;;;1.62;1.52;;;;;;;15.28;62.04;99749.08;1728615;82;20979;-72
2022/09/01 01:01:26;;;;;;;1.80;1.70;;;;;;;15.25;62.13;99748.29;1728887;82;21262;-73
2022/09/01 01:03:53;;;;;;;2.08;1.60;;;;;;;15.22;62.32;99745.58;1728696;83;20985;-72
2022/09/01 01:06:25;;;;;;;5.83;2.75;;;;;;;15.18;62.52;99746.41;1728787;82;21024;-69
2022/09/01 01:08:55;;;;;;;2.33;1.82;;;;;;;15.17;62.57;99749.66;1728286;82;21357;-74
2022/09/01 01:11:16;;;;;;;4.58;1.70;;;;;;;15.12;62.73;99751.04;1727949;82;21101;-72
2022/09/01 01:13:54;;;;;;;3.92;2.00;;;;;;;15.08;62.86;99745.91;1729058;83;21009;-71
2022/09/01 01:16:24;;;;;;;3.12;1.70;;;;;;;15.03;63.07;99745.94;1729266;82;21508;-71
2022/09/01 01:18:52;;;;;;;3.83;1.87;;;;;;;15.00;63.10;99743.80;1729036;82;21052;-70
2022/09/01 01:24:27;;;;;;;;;;;;;;;14.97;63.33;99745.68;1731670;82;21236;-70
2022/09/01 01:26:58;;;;;;;3.08;1.50;;;;;;;14.96;63.48;99745.98;1729181;82;20146;-70
2022/09/01 01:29:30;;;;;;;1.30;1.20;;;;;;;14.93;63.58;99751.93;1729158;82;21012;-70
2022/09/01 01:31:57;;;;;;;3.47;1.55;;;;;;;14.89;63.78;99754.39;1708089;83;21567;-70
2022/09/01 01:34:23;;;;;;;1.85;1.70;;;;;;;14.84;64.03;99759.28;1708353;83;21703;-68
2022/09/01 01:36:51;;;;;;;1.37;1.17;;;;;;;14.79;64.21;99755.78;1728958;82;20971;-71
2022/09/01 01:39:24;;;;;;;2.70;1.85;;;;;;;14.75;64.49;99755.52;1729418;83;20951;-71
2022/09/01 01:41:52;;;;;;;3.08;1.87;;;;;;;14.69;64.60;99754.45;1729228;83;21575;-71
2022/09/01 01:44:27;;;;;;;2.25;2.00;;;;;;;14.67;64.84;99752.04;1729266;82;20992;-69
2022/09/01 01:46:54;;;;;;;3.67;2.00;;;;;;;14.65;64.92;99751.48;1729374;81;21808;-71
2022/09/01 01:49:24;;;;;;;2.30;2.10;;;;;;;14.63;65.01;99752.30;1732747;82;21227;-71
2022/09/01 01:51:56;;;;;;;2.85;1.50;;;;;;;14.60;65.35;99746.09;1717987;82;21052;-74
2022/09/01 01:54:22;;;;;;;3.85;1.80;;;;;;;14.53;65.62;99740.13;1734247;82;21482;-71
2022/09/01 01:56:49;;;;;;;2.77;1.87;;;;;;;14.46;66.06;99736.92;1734275;80;21002;-71
2022/09/01 01:59:15;;;;;;;3.00;2.05;;;;;;;14.36;66.49;99735.05;1733664;82;21053;-70
2022/09/01 02:01:50;;;;;;;2.05;1.65;;;;;;;14.24;67.41;99732.34;1728125;82;21021;-72
2022/09/01 02:04:14;;;;;;;3.12;2.02;;;;;;;14.15;67.77;99735.33;1708840;82;21201;-67
2022/09/01 02:06:44;;;;;;;3.17;1.85;;;;;;;14.11;68.04;99735.58;1722711;82;22190;-75
2022/09/01 02:09:10;;;;;;;2.98;1.75;;;;;;;14.13;68.19;99737.48;1688577;84;21482;-69
2022/09/01 02:11:38;;;;;;;3.15;2.15;;;;;;;14.10;68.48;99732.63;1704853;84;21881;-73
2022/09/01 02:14:06;;;;;;;2.33;1.87;;;;;;;14.08;68.72;99735.59;1706448;82;21546;-70
2022/09/01 02:16:33;;;;;;;5.25;1.70;;;;;;;14.08;69.02;99734.78;1714234;81;20980;-75
2022/09/01 02:19:04;;;;;;;3.87;1.77;;;;;;;14.05;69.24;99732.09;1735365;82;20989;-70
2022/09/01 02:21:31;;;;;;;1.98;1.42;;;;;;;14.07;69.42;99737.20;1740889;81;21095;-70
2022/09/01 02:24:02;;;;;;;5.90;1.95;;;;;;;14.01;69.63;99734.22;1758299;81;21071;-74
2022/09/01 02:26:37;;;;;;;3.50;1.87;;;;;;;13.93;69.88;99736.94;1754938;80;26707;-69
2022/09/01 02:29:07;;;;;;;2.08;1.57;;;;;;;13.86;70.14;99733.71;1757993;81;21568;-70
2022/09/01 02:31:39;;;;;;;2.25;1.80;;;;;;;13.78;69.90;99733.69;1729910;81;26629;-72
2022/09/01 02:34:09;;;;;;;3.25;2.02;;;;;;;13.74;70.33;99733.15;1723918;80;21024;-71
2022/09/01 02:36:41;;;;;;;1.90;1.50;;;;;;;13.68;70.23;99732.33;1730703;82;22098;-71
2022/09/01 02:39:05;;;;;;;1.57;1.47;;;;;;;13.67;70.21;99732.62;1719425;82;20961;-69
2022/09/01 02:41:33;;;;;;;4.40;2.27;;;;;;;13.64;70.30;99739.89;1729041;81;20942;-70
2022/09/01 02:44:01;;;;;;;2.87;1.80;;;;;;;13.64;70.58;99742.59;1708693;82;21001;-69
2022/09/01 02:46:29;;;;;;;2.80;2.30;;;;;;;13.57;70.61;99742.87;1715935;82;21048;-71
2022/09/01 02:48:56;;;;;;;5.00;2.02;;;;;;;13.55;70.71;99745.02;1726428;82;21131;-68
2022/09/01 02:51:26;;;;;;;1.80;1.70;;;;;;;13.54;70.88;99747.45;1729651;83;20979;-70
2022/09/01 02:53:53;;;;;;;2.67;1.75;;;;;;;13.50;70.96;99743.66;1729777;81;21043;-69
2022/09/01 02:56:22;;;;;;;2.98;1.82;;;;;;;13.50;71.07;99747.17;1708429;82;20913;-69
2022/09/01 02:58:49;;;;;;;5.75;2.15;;;;;;;13.53;71.01;99748.52;1727013;81;21094;-69
2022/09/01 03:01:21;;;;;;;3.90;1.80;;;;;;;13.55;71.06;99753.12;1728023;82;21747;-68
2022/09/01 03:03:48;;;;;;;2.33;1.87;;;;;;;13.58;71.10;99758.52;1707530;82;21002;-71
2022/09/01 03:06:18;;;;;;;2.47;2.00;;;;;;;13.55;71.19;99757.19;1697738;84;21569;-69
2022/09/01 03:08:45;;;;;;;2.15;1.62;;;;;;;13.53;71.16;99755.27;1728585;83;21051;-70
2022/09/01 03:11:13;;;;;;;6.62;2.10;;;;;;;13.51;71.14;99761.50;1728338;82;21472;-70
2022/09/01 03:13:41;;;;;;;3.80;2.37;;;;;;;13.49;71.21;99751.48;1723847;81;21142;-70
2022/09/01 03:16:08;;;;;;;4.28;1.82;;;;;;;13.44;71.19;99754.17;1697303;84;21001;-70
2022/09/01 03:18:35;;;;;;;1.87;1.70;;;;;;;13.41;71.29;99758.77;1729938;82;21581;-69
2022/09/01 03:21:03;;;;;;;1.98;1.80;;;;;;;13.37;71.30;99761.20;1705339;83;21075;-69
2022/09/01 03:23:30;;;;;;;2.70;1.80;;;;;;;13.35;71.29;99761.19;1671106;85;21028;-68
2022/09/01 03:25:56;;;;;;;2.22;1.80;;;;;;;13.32;71.21;99758.48;1710285;81;21139;-70
2022/09/01 03:28:23;;;;;;;2.00;1.80;;;;;;;13.29;71.34;99763.05;1730059;82;20940;-68
2022/09/01 03:30:54;;;;;;;2.27;1.82;;;;;;;13.28;71.47;99766.86;1727563;83;21027;-69
2022/09/01 03:33:22;;;;;;;3.98;2.20;;;;;;;13.28;71.54;99763.34;1698950;83;21055;-70
2022/09/01 03:35:49;;;;;;;1.62;1.52;;;;;;;13.26;71.58;99764.13;1728593;83;20995;-71
2022/09/01 03:38:22;;;;;;;3.67;2.02;;;;;;;13.27;71.34;99760.36;1729567;83;21757;-69
2022/09/01 03:40:54;;;;;;;2.00;1.90;;;;;;;13.28;71.18;99768.20;1725000;83;20955;-70
2022/09/01 03:43:23;;;;;;;2.20;1.92;;;;;;;13.28;71.12;99766.86;1699304;84;21026;-71
2022/09/01 03:45:50;;;;;;;2.20;1.92;;;;;;;13.28;71.04;99768.74;1702908;84;20944;-71
2022/09/01 03:48:17;;;;;;;5.30;2.05;;;;;;;13.25;71.11;99770.59;1704478;83;20987;-72
2022/09/01 03:50:45;;;;;;;2.72;1.72;;;;;;;13.24;71.19;99775.72;1702347;83;21041;-72
2022/09/01 03:53:19;;;;;;;2.42;2.00;;;;;;;13.20;71.29;99775.45;1698934;83;21011;-76
2022/09/01 03:55:46;;;;;;;3.80;2.10;;;;;;;13.21;71.12;99776.27;1707036;84;20952;-74
2022/09/01 03:58:17;;;;;;;2.17;1.70;;;;;;;13.21;70.97;99780.31;1704327;84;21004;-73
2022/09/01 04:00:49;;;;;;;3.90;2.80;;;;;;;13.18;70.95;99778.16;1702815;84;21043;-73
2022/09/01 04:03:20;;;;;;;2.10;1.72;;;;;;;13.17;70.87;99784.09;1705484;84;22013;-72
2022/09/01 04:05:44;;;;;;;2.22;1.80;;;;;;;13.16;70.78;99781.11;1705760;84;21051;-72
2022/09/01 04:08:13;;;;;;;2.70;2.20;;;;;;;13.17;70.47;99781.39;1683895;83;21070;-72
2022/09/01 04:10:49;;;;;;;2.58;2.30;;;;;;;13.21;70.16;99785.72;1702697;84;21572;-71
2022/09/01 04:13:32;;;;;;;6.90;1.77;;;;;;;13.28;69.53;99786.30;1699958;84;20967;-73
2022/09/01 04:15:59;;;;;;;2.47;2.08;;;;;;;13.37;69.17;99786.05;1702465;83;21819;-73
2022/09/01 04:18:26;;;;;;;5.00;1.92;;;;;;;13.47;68.52;99787.44;1699791;84;21043;-71
2022/09/01 04:20:56;;;;;;;2.95;2.12;;;;;;;13.53;68.37;99787.70;1700193;84;21023;-70
2022/09/01 04:23:32;;;;;;;1.95;1.77;;;;;;;13.59;68.11;99786.64;1699587;84;20931;-73
2022/09/01 04:26:08;;;;;;;1.55;1.40;;;;;;;13.65;67.54;99795.05;1724223;81;35818;-71
2022/09/01 04:28:44;;;;;;;4.62;1.72;;;;;;;13.71;67.22;99789.92;1704343;81;21244;-73
2022/09/01 04:31:17;;;;;;;3.02;1.67;;;;;;;13.76;67.07;99796.69;1695696;83;21002;-70
2022/09/01 04:33:46;;;;;;;7.33;2.10;;;;;;;13.81;66.81;99802.64;1729917;81;21012;-76
2022/09/01 04:36:19;;;;;;;2.17;1.98;;;;;;;13.87;66.55;99806.96;1729702;83;20975;-70
2022/09/01 04:38:49;;;;;;;4.58;1.92;;;;;;;13.92;66.13;99807.78;1716302;81;21350;-71
2022/09/01 04:41:16;;;;;;;2.00;1.57;;;;;;;13.98;65.73;99807.25;1713960;83;21780;-68
2022/09/01 04:43:46;;;;;;;6.47;1.80;;;;;;;14.05;65.46;99810.52;1695682;83;21509;-70
2022/09/01 04:46:14;;;;;;;2.30;1.72;;;;;;;14.14;65.29;99812.14;1723422;83;20995;-70
2022/09/01 04:48:43;;;;;;;1.87;1.67;;;;;;;14.20;64.92;99807.80;1699618;84;22322;-69
2022/09/01 04:51:11;;;;;;;2.40;2.17;;;;;;;14.30;65.99;99809.14;1690597;83;21064;-70
2022/09/01 04:53:47;;;;;;;4.67;2.77;;;;;;;14.40;66.69;99809.17;1685130;83;22175;-73
2022/09/01 04:56:11;;;;;;;6.20;2.70;;;;;;;14.52;68.44;99812.97;1695067;83;22192;-69
2022/09/01 04:58:39;;;;;;;10.38;3.65;;;;;;;14.61;69.35;99811.87;1688144;84;21044;-71
2022/09/01 05:01:16;;;;;;;4.70;3.35;;;;;;;14.71;70.77;99817.27;1690892;84;21151;-69
2022/09/01 05:03:44;;;;;;;7.20;3.60;;;;;;;14.82;71.54;99810.19;1692439;84;21107;-70
2022/09/01 05:06:16;;;;;;;4.33;3.92;;;;;;;14.94;71.94;99816.67;1692285;84;21230;-69
2022/09/01 05:08:45;;;;;;;4.50;4.10;;;;;;;15.04;72.88;99807.70;1674100;84;21000;-68
2022/09/01 05:11:17;;;;;;;5.72;4.03;;;;;;;15.13;73.93;99804.14;1689569;83;20953;-70
2022/09/01 05:13:47;;;;;;;7.05;4.78;;;;;;;15.17;74.28;99798.44;1688621;83;21642;-70
2022/09/01 05:16:20;;;;;;;4.78;4.35;;;;;;;15.24;74.53;99796.79;1687136;84;21095;-71
2022/09/01 05:18:48;;;;;;;6.85;4.85;;;;;;;15.30;74.73;99788.88;1690257;84;21098;-69
2022/09/01 05:21:18;;;;;;;5.83;4.42;;;;;;;15.37;75.09;99793.47;1695246;84;21493;-71
2022/09/01 05:23:45;;;;;;;5.28;4.45;;;;;;;15.45;75.41;99798.84;1687785;84;21055;-71
2022/09/01 05:26:16;;;;;;;5.92;4.65;;;;;;;15.53;75.55;99796.41;1684345;83;21084;-70
2022/09/01 05:28:45;;;;;;;9.40;5.70;;;;;;;15.59;75.53;99794.45;1671664;83;21540;-70
2022/09/01 05:31:18;;;;;;;5.37;4.80;;;;;;;15.68;75.50;99793.58;1685942;83;21259;-71
2022/09/01 05:33:44;;;;;;;8.50;5.55;;;;;;;15.78;75.41;99797.34;1688582;84;20976;-71
2022/09/01 05:36:12;;;;;;;6.92;5.97;;;;;;;15.85;75.27;99797.83;1692155;83;21087;-71
2022/09/01 05:38:42;;;;;;;7.72;6.00;;;;;;;15.90;74.95;99796.44;1692498;84;21036;-69
2022/09/01 05:41:13;;;;;;;8.15;6.50;;;;;;;15.94;74.80;99798.30;1689897;84;20984;-70
2022/09/01 05:43:46;;;;;;;6.95;5.65;;;;;;;15.98;74.47;99795.28;1694496;83;21121;-68
2022/09/01 05:46:17;;;;;;;8.03;6.07;;;;;;;16.03;74.35;99799.86;1712116;83;21064;-71
2022/09/01 05:48:48;;;;;;;10.40;5.78;;;;;;;16.09;74.14;99801.45;1708373;83;21300;-70
2022/09/01 05:51:18;;;;;;;6.78;5.37;;;;;;;16.16;73.69;99793.81;1710314;82;21103;-69
2022/09/01 05:53:50;;;;;;;6.75;5.30;;;;;;;16.25;73.40;99801.60;1688769;83;21028;-69
2022/09/01 05:56:15;;;;;;;7.50;5.20;;;;;;;16.32;73.02;99793.11;1684421;83;21509;-69
2022/09/01 05:58:43;;;;;;;6.47;5.40;;;;;;;16.35;72.72;99800.16;1685451;83;21044;-71
2022/09/01 06:01:10;;;;;;;7.08;5.67;;;;;;;16.42;72.36;99803.34;1693175;83;21084;-70
2022/09/01 06:03:39;;;;;;;7.28;5.45;;;;;;;16.50;71.98;99801.36;1673983;84;21749;-71
2022/09/01 06:06:11;;;;;;;5.03;4.60;;;;;;;16.57;70.98;99796.41;1684808;83;21742;-72
2022/09/01 06:08:35;;;;;;;5.87;3.37;;;;;;;16.62;70.32;99794.77;1687783;83;21234;-69
2022/09/01 06:11:11;;;;;;;5.78;3.83;;;;;;;16.67;69.21;99800.16;1691422;84;20996;-70
2022/09/01 06:13:33;;;;;;;8.03;4.28;;;;;;;16.69;67.97;99789.25;1693326;83;21593;-70
2022/09/01 06:16:01;;;;;;;4.90;3.90;;;;;;;16.73;67.92;99798.47;1692626;84;21013;-69
2022/09/01 06:18:33;;;;;;;8.35;4.17;;;;;;;16.78;67.66;99797.06;1674891;84;21536;-71
2022/09/01 06:20:58;;;;;;;8.28;4.15;;;;;;;16.83;67.12;99792.12;1690228;84;21087;-70
2022/09/01 06:23:25;;;;;;;7.28;4.28;;;;;;;16.89;66.88;99790.39;1689360;84;21011;-69
2022/09/01 06:25:52;;;;;;;10.35;4.47;;;;;;;16.95;66.44;99787.08;1693155;83;21059;-70
2022/09/01 06:28:22;;;;;;;5.45;3.87;;;;;;;17.00;65.51;99786.48;1687439;84;21079;-71
2022/09/01 06:30:50;;;;;;;5.15;3.90;;;;;;;17.06;63.60;99789.95;1662108;85;21118;-70
2022/09/01 06:33:18;;;;;;;5.92;3.98;;;;;;;17.13;63.81;99790.39;1667206;84;21123;-70
2022/09/01 06:35:47;;;;;;;4.67;3.08;;;;;;;17.19;63.59;99787.87;1695615;83;21672;-70
2022/09/01 06:38:16;;;;;;;3.37;3.08;;;;;;;17.26;61.70;99797.05;1688703;84;21270;-71
2022/09/01 06:40:45;;;;;;;2.60;2.40;;;;;;;17.33;59.63;99797.48;1670635;85;21440;-70
2022/09/01 06:43:15;;;;;;;2.70;2.50;;;;;;;17.39;58.69;99797.69;1691449;84;21063;-70
2022/09/01 06:45:53;;;;;;;7.22;2.92;;;;;;;17.45;58.09;99792.45;1689935;82;21068;-72
2022/09/01 06:48:17;;;;;;;3.98;2.33;;;;;;;17.53;57.96;99793.69;1635867;87;21091;-71
2022/09/01 06:50:44;;;;;;;2.45;2.08;;;;;;;17.59;57.22;99792.02;1684891;83;21088;-79
2022/09/01 06:53:15;;;;;;;3.75;2.40;;;;;;;17.62;56.05;99802.84;1685755;83;21096;-70
2022/09/01 06:55:42;;;;;;;2.75;1.65;;;;;;;17.68;55.74;99796.23;1713392;83;21081;-72
2022/09/01 06:58:12;;;;;;;3.72;1.92;;;;;;;17.72;54.73;99797.26;1712325;83;21812;-70
2022/09/01 07:00:41;;;;;;;4.03;2.00;;;;;;;17.77;54.01;99804.80;1726850;82;21011;-71
2022/09/01 07:03:12;;;;;;;2.52;2.33;;;;;;;17.81;53.71;99797.66;1735567;81;21091;-70
2022/09/01 07:05:50;;;;;;;4.17;2.60;;;;;;;17.79;53.88;99789.55;1724529;82;20992;-70
2022/09/01 07:08:20;;;;;;;4.80;2.35;;;;;;;17.78;54.68;99800.98;1714421;83;21030;-71
2022/09/01 07:10:58;;;;;;;5.28;3.00;;;;;;;17.79;54.01;99810.73;1738909;82;21324;-70
2022/09/01 07:13:24;;;;;;;4.70;2.55;;;;;;;17.80;54.03;99800.67;1733408;82;20937;-72
2022/09/01 07:15:53;;;;;;;4.47;2.98;;;;;;;17.82;54.72;99808.81;1733179;82;21053;-70
2022/09/01 07:18:27;;;;;;;4.35;2.75;;;;;;;17.85;55.09;99808.76;1725006;82;21049;-71
2022/09/01 07:20:52;;;;;;;5.30;3.27;;;;;;;17.90;55.11;99807.88;1735284;82;21057;-71
2022/09/01 07:23:19;;;;;;;3.55;2.45;;;;;;;17.95;55.00;99803.16;1735730;82;21117;-70
2022/09/01 07:25:48;;;;;;;4.25;2.22;;;;;;;18.00;54.90;99806.36;1721899;82;21061;-76
2022/09/01 07:28:17;;;;;;;6.20;2.72;;;;;;;17.99;53.19;99816.98;1720711;82;21121;-73
2022/09/01 07:30:47;;;;;;;2.80;2.55;;;;;;;18.04;53.34;99801.39;1740151;82;21491;-70
2022/09/01 07:33:17;;;;;;;3.30;3.00;;;;;;;18.12;53.49;99807.54;1727554;82;21035;-70
2022/09/01 07:35:44;;;;;;;3.08;2.70;;;;;;;18.20;53.28;99809.58;1729151;82;21113;-72
2022/09/01 07:38:12;;;;;;;4.67;3.00;;;;;;;18.28;53.17;99805.36;1734330;82;22213;-72
2022/09/01 07:40:40;;;;;;;3.62;2.55;;;;;;;18.36;51.81;99806.61;1738712;81;21538;-70
2022/09/01 07:43:23;;;;;;;6.25;2.60;;;;;;;18.40;50.66;99810.34;1727807;82;21708;-70
2022/09/01 07:46:06;;;;;;;3.65;2.33;;;;;;;18.46;51.32;99808.61;1687640;84;20980;-71
2022/09/01 07:48:33;;;;;;;4.00;2.20;;;;;;;18.53;49.43;99821.31;1720072;82;21176;-73
2022/09/01 07:51:00;;;;;;;8.63;2.95;;;;;;;18.60;48.25;99822.29;1711565;82;20922;-71
2022/09/01 07:53:30;;;;;;;8.13;3.17;;;;;;;18.61;48.27;99815.16;1718097;82;21017;-71
2022/09/01 07:56:08;;;;;;;4.80;3.10;;;;;;;18.65;47.48;99816.75;1712486;83;20989;-73
2022/09/01 07:58:39;;;;;;;3.40;2.08;;;;;;;18.67;46.93;99830.31;1708394;82;21108;-71
2022/09/01 08:01:12;;;;;;;7.55;3.62;;;;;;;18.65;46.47;99820.30;1712080;82;21236;-73
2022/09/01 08:03:40;;;;;;;5.28;3.58;;;;;;;18.63;46.30;99814.88;1695296;82;21005;-71
2022/09/01 08:06:10;;;;;;;8.73;4.53;;;;;;;18.64;46.46;99824.67;1703708;82;21069;-70
2022/09/01 08:08:40;;;;;;;5.67;4.17;;;;;;;18.64;46.51;99821.39;1715649;82;20934;-70
2022/09/01 08:11:07;;;;;;;5.10;3.52;;;;;;;18.65;45.99;99814.84;1733041;82;21706;-74
2022/09/01 08:13:37;;;;;;;10.18;4.62;;;;;;;18.66;45.63;99810.17;1718274;82;21801;-74
2022/09/01 08:16:06;;;;;;;12.03;7.20;;;;;;;18.63;46.14;99813.52;1732958;82;20987;-77
2022/09/01 08:18:34;;;;;;;12.50;5.83;;;;;;;18.64;46.66;99813.77;1749966;81;20991;-73
2022/09/01 08:21:07;;;;;;;15.93;8.73;;;;;;;18.64;46.75;99805.59;1742031;81;20977;-74
2022/09/01 08:23:37;;;;;;;15.68;9.15;;;;;;;18.64;47.17;99806.96;1725280;82;21065;-75
2022/09/01 08:26:13;;;;;;;15.65;8.88;;;;;;;18.67;47.84;99807.16;1729289;82;21181;-74
2022/09/01 08:28:40;;;;;;;11.08;7.45;;;;;;;18.71;47.56;99811.45;1732446;82;21014;-73
2022/09/01 08:31:12;;;;;;;14.90;8.28;;;;;;;18.73;47.87;99813.33;1725449;82;21552;-73
2022/09/01 08:33:42;;;;;;;15.55;7.75;;;;;;;18.76;47.59;99805.91;1733908;81;21012;-74
2022/09/01 08:36:11;;;;;;;12.47;9.03;;;;;;;18.77;47.53;99798.55;1734822;82;21013;-71
2022/09/01 08:38:39;;;;;;;9.18;7.10;;;;;;;18.76;46.58;99804.54;1699151;82;21136;-73
2022/09/01 08:41:24;;;;;;;12.30;7.17;;;;;;;18.76;46.28;99794.19;1717977;82;21123;-71
2022/09/01 08:44:17;;;;;;;9.80;6.30;;;;;;;18.76;46.30;99795.00;1700709;83;20968;-72
2022/09/01 08:46:43;;;;;;;7.42;4.85;;;;;;;18.85;46.36;99798.64;1719358;81;21011;-74
2022/09/01 08:49:18;;;;;;;7.17;3.67;;;;;;;18.93;44.46;99810.23;1734309;82;20933;-73
2022/09/01 08:52:35;;;;;;;11.60;6.62;;;;;;;18.93;43.59;99806.14;1722309;82;21298;-74
2022/09/01 08:55:28;;;;;;;15.25;6.05;;;;;;;18.93;44.27;99787.06;1732047;82;21533;-74
2022/09/01 08:57:56;;;;;;;6.37;5.65;;;;;;;18.96;44.89;99788.36;1717887;82;20996;-75
2022/09/01 09:00:26;;;;;;;9.73;7.15;;;;;;;19.00;43.89;99805.17;1725615;82;21040;-77
2022/09/01 09:03:29;;;;;;;9.08;6.17;;;;;;;19.00;44.02;99790.73;1738965;80;21075;-72
2022/09/01 09:06:16;;;;;;;8.28;4.40;;;;;;;18.99;44.02;99780.37;1743554;80;21152;-71
2022/09/01 09:08:53;;;;;;;11.83;5.40;;;;;;;19.02;43.61;99804.88;1735763;82;20955;-71
2022/09/01 09:11:44;;;;;;;11.08;7.62;;;;;;;19.02;43.28;99808.41;1728667;81;21049;-77
2022/09/01 09:14:24;;;;;;;12.25;7.85;;;;;;;19.01;43.41;99808.16;1725253;82;21060;-73
2022/09/01 09:16:53;;;;;;;14.55;10.20;;;;;;;18.99;43.20;99800.82;1730514;82;21021;-72
2022/09/01 09:19:39;;;;;;;15.43;10.05;;;;;;;19.05;43.20;99791.44;1726966;81;21156;-72
2022/09/01 09:22:12;;;;;;;24.80;13.35;;;;;;;19.12;42.76;99797.31;1735285;82;20977;-72
2022/09/01 09:25:00;;;;;;;23.38;13.83;;;;;;;19.21;42.91;99789.22;1725766;82;21550;-70
2022/09/01 09:27:36;;;;;;;34.53;21.10;;;;;;;19.31;42.77;99801.84;1729974;82;21111;-72
2022/09/01 09:30:09;;;;;;;32.53;19.85;;;;;;;19.39;42.92;99785.55;1734329;81;21552;-74
2022/09/01 09:32:51;;;;;;;36.83;26.82;;;;;;;19.49;43.00;99780.47;1731952;82;21111;-70
2022/09/01 09:35:30;;;;;;;49.80;27.75;;;;;;;19.61;42.87;99781.31;1736047;81;20976;-73
2022/09/01 09:37:58;;;;;;;38.75;24.43;;;;;;;19.72;42.54;99778.03;1734815;81;21004;-70
2022/09/01 09:40:25;;;;;;;46.00;29.92;;;;;;;19.81;41.54;99793.11;1692312;81;20974;-71
2022/09/01 09:43:00;;;;;;;46.40;31.12;;;;;;;19.82;41.29;99786.54;1736253;82;21052;-75
2022/09/01 09:45:33;;;;;;;58.80;36.17;;;;;;;19.78;41.60;99791.01;1734361;82;21127;-75
2022/09/01 09:48:05;;;;;;;53.75;35.40;;;;;;;19.73;42.24;99789.20;1725049;82;20910;-74
2022/09/01 09:50:37;;;;;;;60.40;38.80;;;;;;;19.73;42.34;99793.84;1711713;82;21530;-75
2022/09/01 09:53:18;;;;;;;59.90;38.50;;;;;;;19.71;42.24;99797.46;1739773;81;21090;-75
2022/09/01 09:56:05;;;;;;;62.80;37.58;;;;;;;19.63;42.48;99796.25;1715713;81;21000;-72
2022/09/01 09:58:39;;;;;;;56.92;37.17;;;;;;;19.60;42.37;99790.05;1726193;81;21576;-75
2022/09/01 10:01:15;;;;;;;57.53;37.73;;;;;;;19.58;42.38;99795.81;1699266;84;21514;-76
2022/09/01 10:03:45;;;;;;;53.55;34.13;;;;;;;19.60;42.67;99784.59;1727042;81;21051;-76
2022/09/01 10:06:38;;;;;;;56.77;32.60;;;;;;;19.62;42.53;99788.36;1718501;81;21071;-77
2022/09/01 10:09:08;;;;;;;52.20;32.48;;;;;;;19.64;42.11;99795.70;1733970;81;20990;-71
2022/09/01 10:11:41;;;;;;;51.98;32.25;;;;;;;19.61;41.98;99802.59;1741193;81;21995;-75
2022/09/01 10:14:19;;;;;;;58.65;35.65;;;;;;;19.52;42.08;99807.94;1725861;83;20979;-72
2022/09/01 10:16:48;;;;;;;51.80;32.58;;;;;;;19.47;42.41;99793.04;1724437;82;21007;-71
2022/09/01 10:19:15;;;;;;;59.48;34.30;;;;;;;19.47;42.70;99779.40;1721512;81;21031;-81
2022/09/01 10:21:43;;;;;;;50.80;33.45;;;;;;;19.49;42.66;99790.02;1678075;84;21093;-75
2022/09/01 10:24:21;;;;;;;52.23;32.90;;;;;;;19.53;42.86;99783.64;1715914;83;21139;-79
2022/09/01 10:26:52;;;;;;;40.98;30.05;;;;;;;19.59;42.69;99803.44;1728390;82;20932;-73
2022/09/01 10:29:34;;;;;;;44.55;30.32;;;;;;;19.62;42.65;99794.63;1729631;81;21057;-73
2022/09/01 10:32:03;;;;;;;56.42;32.13;;;;;;;19.68;42.71;99777.03;1684802;84;21528;-71
2022/09/01 10:34:33;;;;;;;47.15;31.10;;;;;;;19.79;42.77;99768.06;1675335;84;21088;-74
2022/09/01 10:37:00;;;;;;;42.27;26.12;;;;;;;19.88;42.53;99774.39;1681094;84;22280;-70
2022/09/01 10:39:26;;;;;;;33.45;23.35;;;;;;;19.92;41.77;99789.03;1676619;84;21090;-74
2022/09/01 10:41:56;;;;;;;37.67;23.90;;;;;;;19.92;40.79;99790.41;1674868;84;21583;-71
2022/09/01 10:44:30;;;;;;;34.33;21.62;;;;;;;19.91;40.41;99781.40;1685278;84;21023;-73
2022/09/01 10:46:57;;;;;;;38.73;23.77;;;;;;;19.95;40.48;99767.96;1652299;85;21678;-75
2022/09/01 10:49:34;;;;;;;32.53;21.10;;;;;;;19.99;40.79;99766.22;1648280;87;21127;-80
2022/09/01 10:52:01;;;;;;;32.03;20.32;;;;;;;20.09;40.28;99776.90;1648225;85;22274;-71
2022/09/01 10:54:45;;;;;;;25.00;15.88;;;;;;;20.24;39.18;99774.34;1659079;84;21044;-72
2022/09/01 10:57:30;;;;;;;23.22;15.85;;;;;;;20.35;38.01;99772.98;1642999;86;21062;-71
2022/09/01 11:00:25;;;;;;;22.22;15.23;;;;;;;20.43;37.03;99775.76;1672463;85;21070;-71
2022/09/01 11:03:17;;;;;;;23.77;14.55;;;;;;;20.48;36.89;99767.99;1674211;85;21769;-74
2022/09/01 11:06:06;;;;;;;23.75;15.00;;;;;;;20.53;36.79;99770.59;1674595;85;21008;-69
2022/09/01 11:08:46;;;;;;;27.30;15.70;;;;;;;20.59;37.18;99752.95;1674308;85;20988;-71
2022/09/01 11:11:37;;;;;;;22.42;13.60;;;;;;;20.71;37.13;99760.57;1677176;84;21035;-68
2022/09/01 11:14:10;;;;;;;24.20;13.85;;;;;;;20.84;37.23;99750.89;1674983;84;21147;-70
2022/09/01 11:16:37;;;;;;;26.27;14.93;;;;;;;20.92;37.31;99764.89;1673774;83;21528;-71
2022/09/01 11:19:25;;;;;;;20.00;12.93;;;;;;;20.92;37.31;99764.89;1674306;85;21003;-76
2022/09/01 11:22:21;;;;;;;20.12;11.68;;;;;;;20.99;38.20;99761.96;1674248;85;21720;-74
2022/09/01 11:25:13;;;;;;;21.70;13.10;;;;;;;20.92;37.84;99750.66;1676028;85;21456;-72
2022/09/01 11:27:54;;;;;;;24.90;12.95;;;;;;;20.79;38.15;99760.59;1677052;84;21514;-73
2022/09/01 11:30:40;;;;;;;15.75;11.18;;;;;;;20.75;37.90;99766.45;1674874;84;21111;-72
2022/09/01 11:33:24;;;;;;;17.27;10.58;;;;;;;20.72;36.63;99757.50;1673942;85;21047;-76
2022/09/01 11:35:59;;;;;;;22.95;11.55;;;;;;;20.65;36.23;99759.09;1675032;85;20917;-72
2022/09/01 11:38:25;;;;;;;17.85;11.12;;;;;;;20.60;35.95;99764.13;1677146;85;21106;-77
2022/09/01 11:40:55;;;;;;;20.75;10.88;;;;;;;20.60;36.20;99754.56;1676967;85;21040;-76
2022/09/01 11:43:22;;;;;;;15.28;9.88;;;;;;;20.66;36.02;99769.72;1674316;83;32605;-71
2022/09/01 11:46:16;;;;;;;14.87;9.48;;;;;;;20.70;34.63;99767.95;1676905;84;21044;-73
2022/09/01 11:48:48;;;;;;;13.32;9.68;;;;;;;20.70;34.63;99767.95;1672070;84;21065;-72
2022/09/01 11:51:15;;;;;;;14.50;10.30;;;;;;;20.75;34.95;99773.30;1677056;85;21024;-72
2022/09/01 11:53:42;;;;;;;20.85;11.93;;;;;;;20.79;35.63;99774.83;1676391;84;21110;-71